Hlavní strana
METAR-TAF:

METAR-TAF

Letiště :

Kuvajt, Kuvajt

zeměpisná šířka: 29-13N, zeměpisná délka: 047-59E, výška: 55 m

Aktuální stav počasí

Zpráva byla vytvořena před 41 minutami, v 10:00 UTC
Severozápadní vítr 17 kt
Teplota 43°C
Vlhkost vzduchu 11%
Tlak 997 hPa
Viditelnost: 7000 m
Jasno
(slabý) , rozsáhlý prach

METAR: OKBK 181000Z 31017KT 7000 -BLDU SKC 43/06 Q0997 NOSIG

Čas: 13:41 (10:41 UTC)

Předpověď počasí

Zpráva byla vytvořena před 5 hodinami a 56 minutami, v 04:45 UTC
Předpověď platná od 18 v 06 UTC do 19 v 12 UTC
Severoseverozápadní vítr 10 kt s nárazy do 20 kt
Viditelnost: 7000 m
Jasno
Dočasný
od 18 v 06 UTC do 18 v 12 UTC
vítr z různých směrů 3 kt
Viditelnost: 3000 m
zákal

TAF: OKBK 180445Z 1806/1912 34010G20KT 7000 SKC TEMPO 1806/1812 VRB03KT 3000 HZ

Stav a předpovědi počasí z více než 4 000 letišť (zprávy METAR a TAF).

Červené a žluté tečky na mapě představují dostupné meteorologické stanice.

Když kurzor umístíte na tečku, zobrazí se název stanice.

Pak kliknutím zobrazíte stav a předpověď počasí.

Chcete-li změnit mapu, kliknutím na zelené tlačítko se znaménkem +mapu přiblížíte, kliknutím na zelené tlačítko se znaménkem – mapu oddálíte a kliknutím na zelené šipky přejdete na sousední mapy.


METAR-TAF: